Terminal Aerodrome Forecast
Issued by NWS

Home | Current Version | Previous Version | Text Only | Print | Product List | Glossary On
Versions: 1 2 3 4 5 6 7 8 9 10 11 12 13
000
FTUS45 KABQ 181100
TAFLVS
TAF
KLVS 181124Z 1812/1912 VRB05KT P6SM SKC
     FM182000 20011KT P6SM SCT070
     FM190200 VRB05KT P6SM BKN060
     FM190800 36005KT P6SM SKC=

USA.gov is the U.S. government's official web portal to all federal, state and local government web resources and services.